Terminal Aerodrome Forecast
Issued by NWS Sioux Falls, SD

Home | Current Version | Previous Version | Text Only | Print | Product List | Glossary On
Versions: 1 2 3 4 5 6 7 8 9 10 11 12 13
000
FTUS43 KFSD 021720
TAFFSD
TAF
KFSD 021720Z 0218/0318 21009KT P6SM SKC
     FM030100 17008KT P6SM SKC
     FM031000 16012KT P6SM SCT010 WS020/23040KT
     FM031400 16014G22KT P6SM BKN015=

USA.gov is the U.S. government's official web portal to all federal, state and local government web resources and services.